Time;durP1;ratioP1;P1;durP2;ratioP2;P2;SDS_P1;SDS_P2;PMS_P1;PMS_P2;Temp;Humidity;BMP_temperature;BMP_pressure;BME280_temperature;BME280_humidity;BME280_pressure;Samples;Min_cycle;Max_cycle;Signal;HPM_P1;HPM_P2
2022/08/20 00:00:30;;;;;;;11.70;8.60;;;;;;;25.09;54.88;100074.43;117351;1186;23015;-65
2022/08/20 00:03:04;;;;;;;13.20;8.20;;;;;;;25.10;54.85;100077.64;117188;1183;21977;-59
2022/08/20 00:05:36;;;;;;;11.00;8.70;;;;;;;25.08;54.95;100080.78;117211;1182;24171;-65
2022/08/20 00:08:04;;;;;;;13.70;8.30;;;;;;;25.07;55.06;100083.41;117167;1186;23712;-65
2022/08/20 00:10:32;;;;;;;13.30;8.60;;;;;;;25.04;55.17;100083.63;117343;1182;23552;-59
2022/08/20 00:12:59;;;;;;;11.60;8.40;;;;;;;25.02;55.09;100079.12;117409;1185;21896;-65
2022/08/20 00:15:28;;;;;;;10.30;8.50;;;;;;;25.02;55.15;100078.98;117387;1186;22947;-59
2022/08/20 00:17:56;;;;;;;14.90;8.60;;;;;;;25.00;55.07;100081.25;117350;1181;22923;-65
2022/08/20 00:20:28;;;;;;;12.50;8.90;;;;;;;25.01;55.05;100082.25;117229;1182;21857;-59
2022/08/20 00:22:55;;;;;;;11.70;8.40;;;;;;;24.98;55.20;100083.95;117193;1183;23474;-64
2022/08/20 00:25:23;;;;;;;15.40;8.60;;;;;;;24.94;55.32;100083.32;117197;1188;21865;-58
2022/08/20 00:27:51;;;;;;;11.10;8.60;;;;;;;24.93;55.35;100081.23;117349;1182;25476;-65
2022/08/20 00:30:18;;;;;;;11.80;8.40;;;;;;;24.92;55.39;100076.33;117079;1183;22171;-65
2022/08/20 00:32:50;;;;;;;13.00;8.60;;;;;;;24.94;55.36;100074.16;117340;1182;23697;-65
2022/08/20 00:35:19;;;;;;;12.30;8.10;;;;;;;24.95;55.25;100077.34;117293;1186;23685;-65
2022/08/20 00:37:46;;;;;;;13.70;8.80;;;;;;;24.88;55.36;100083.11;117356;1183;23650;-65
2022/08/20 00:40:14;;;;;;;13.70;8.70;;;;;;;24.85;55.44;100084.39;117327;1183;22925;-58
2022/08/20 00:42:56;;;;;;;15.30;8.60;;;;;;;24.81;55.58;100085.20;117325;1185;22016;-59
2022/08/20 00:45:25;;;;;;;14.10;9.10;;;;;;;24.81;55.59;100086.31;117216;1182;22928;-64
2022/08/20 00:47:53;;;;;;;17.30;9.20;;;;;;;24.88;55.35;100087.41;117351;1183;22918;-58
2022/08/20 00:50:27;;;;;;;10.40;8.90;;;;;;;24.87;55.41;100090.86;117398;1187;21855;-65
2022/08/20 00:52:54;;;;;;;11.50;9.30;;;;;;;24.84;55.36;100091.25;117356;1186;23647;-59
2022/08/20 00:55:22;;;;;;;14.00;8.70;;;;;;;24.82;55.29;100089.99;117070;1182;24189;-59
2022/08/20 00:57:55;;;;;;;14.50;8.60;;;;;;;24.80;55.51;100089.40;117221;1188;21860;-59
2022/08/20 01:00:43;;;;;;;11.40;8.90;;;;;;;24.79;55.54;100089.80;117075;1187;22999;-65
2022/08/20 01:03:13;;;;;;;12.10;9.30;;;;;;;24.81;55.59;100088.30;117299;1185;21862;-65
2022/08/20 01:05:43;;;;;;;17.80;9.60;;;;;;;24.81;55.55;100089.92;117243;1185;23579;-59
2022/08/20 01:08:10;;;;;;;14.50;9.40;;;;;;;24.80;55.42;100094.95;117326;1185;23495;-65
2022/08/20 01:10:39;;;;;;;13.10;9.20;;;;;;;24.79;55.52;100094.16;117333;1185;22807;-59
2022/08/20 01:13:12;;;;;;;11.90;9.10;;;;;;;24.76;55.49;100095.13;117152;1187;21853;-65
2022/08/20 01:15:40;;;;;;;14.40;9.70;;;;;;;24.73;55.68;100091.73;117151;1182;23483;-65
2022/08/20 01:18:11;;;;;;;16.40;10.20;;;;;;;24.71;55.61;100093.88;117116;1188;21853;-58
2022/08/20 01:20:44;;;;;;;13.30;9.30;;;;;;;24.68;55.64;100103.03;117360;1183;21993;-59
2022/08/20 01:23:31;;;;;;;13.40;9.60;;;;;;;24.66;55.80;100108.61;117188;1186;21873;-64
2022/08/20 01:26:11;;;;;;;13.60;10.30;;;;;;;24.62;55.93;100104.77;117323;1182;22809;-64
2022/08/20 01:28:44;;;;;;;14.00;9.00;;;;;;;24.58;56.12;100104.00;117227;1185;21858;-64
2022/08/20 01:31:13;;;;;;;14.00;9.00;;;;;;;24.56;56.08;100100.58;117198;1183;22621;-66
2022/08/20 01:33:40;;;;;;;10.80;8.90;;;;;;;24.54;56.09;100096.59;117191;1183;21964;-59
2022/08/20 01:36:10;;;;;;;14.00;8.90;;;;;;;24.53;56.07;100094.48;117181;1187;22323;-64
2022/08/20 01:38:38;;;;;;;18.40;10.50;;;;;;;24.52;56.07;100097.06;117357;1185;21865;-58
2022/08/20 01:41:20;;;;;;;16.90;9.70;;;;;;;24.50;56.06;100097.04;117063;1185;24216;-59
2022/08/20 01:43:55;;;;;;;16.20;9.60;;;;;;;24.47;56.19;100097.95;117250;1186;22325;-67
2022/08/20 01:46:29;;;;;;;35.30;10.10;;;;;;;24.47;56.06;100097.44;117301;1186;21847;-60
2022/08/20 01:48:56;;;;;;;26.60;10.50;;;;;;;24.54;56.20;100095.80;117076;1183;22156;-65
2022/08/20 01:51:26;;;;;;;13.60;9.80;;;;;;;24.66;56.23;100093.91;117149;1187;22924;-65
2022/08/20 01:53:54;;;;;;;18.10;10.30;;;;;;;24.73;56.25;100088.70;117209;1182;23001;-65
2022/08/20 01:56:24;;;;;;;16.60;10.30;;;;;;;24.72;56.13;100088.04;117216;1186;21865;-59
2022/08/20 01:58:53;;;;;;;12.30;9.90;;;;;;;24.67;56.12;100085.93;117448;1185;22997;-59
2022/08/20 02:01:35;;;;;;;13.50;9.80;;;;;;;24.59;56.20;100081.86;118094;1182;21887;-65
2022/08/20 02:04:12;;;;;;;16.90;10.10;;;;;;;24.51;56.25;100074.95;117330;1185;21856;-58
2022/08/20 02:06:44;;;;;;;18.00;10.40;;;;;;;24.44;56.42;100081.49;117318;1186;22621;-65
2022/08/20 02:09:28;;;;;;;14.30;10.50;;;;;;;24.38;56.59;100083.23;117279;1185;22309;-64
2022/08/20 02:11:56;;;;;;;14.70;10.90;;;;;;;24.32;56.59;100086.52;117333;1185;22999;-59
2022/08/20 02:14:24;;;;;;;13.60;10.70;;;;;;;24.27;56.66;100087.42;117227;1186;22911;-58
2022/08/20 02:16:51;;;;;;;15.40;11.10;;;;;;;24.25;56.54;100083.34;117324;1181;23002;-64
2022/08/20 02:19:24;;;;;;;13.70;10.40;;;;;;;24.20;56.70;100079.72;117353;1185;22945;-58
2022/08/20 02:21:54;;;;;;;12.40;10.70;;;;;;;24.15;56.72;100076.30;117451;1182;21977;-58
2022/08/20 02:24:21;;;;;;;14.70;10.10;;;;;;;24.12;56.73;100080.28;117255;1183;22630;-58
2022/08/20 02:26:48;;;;;;;15.70;10.80;;;;;;;24.11;56.85;100077.36;117281;1183;23016;-59
2022/08/20 02:29:15;;;;;;;13.40;10.90;;;;;;;24.10;56.85;100081.00;117390;1182;23538;-58
2022/08/20 02:31:43;;;;;;;16.20;10.80;;;;;;;24.10;56.78;100087.08;117291;1182;23002;-65
2022/08/20 02:34:30;;;;;;;16.40;10.60;;;;;;;24.10;56.94;100090.15;117302;1182;21921;-58
2022/08/20 02:36:57;;;;;;;17.90;10.80;;;;;;;24.08;56.89;100090.45;117146;1187;22173;-59
2022/08/20 02:39:25;;;;;;;16.40;10.70;;;;;;;24.05;56.91;100097.45;117340;1180;22925;-64
2022/08/20 02:41:52;;;;;;;13.50;10.20;;;;;;;23.94;57.11;100102.73;117366;1185;21867;-58
2022/08/20 02:44:20;;;;;;;19.90;10.70;;;;;;;23.80;57.51;100104.46;117118;1183;22989;-58
2022/08/20 02:46:50;;;;;;;14.50;10.40;;;;;;;23.86;57.36;100105.11;117347;1183;22943;-65
2022/08/20 02:49:17;;;;;;;;;;;;;;;23.95;57.26;100103.60;117410;1183;21914;-58
2022/08/20 02:51:44;;;;;;;14.50;9.80;;;;;;;23.93;57.17;100096.19;117332;1186;21857;-64
2022/08/20 02:54:12;;;;;;;11.60;9.80;;;;;;;23.77;57.67;100093.03;117322;1185;22633;-64
2022/08/20 02:56:39;;;;;;;12.90;10.30;;;;;;;23.72;57.68;100095.69;117333;1183;22928;-64
2022/08/20 02:59:06;;;;;;;13.10;10.20;;;;;;;23.64;58.04;100098.05;117277;1186;21896;-64
2022/08/20 03:01:36;;;;;;;13.20;10.90;;;;;;;23.61;58.03;100099.35;117420;1182;23712;-65
2022/08/20 03:04:04;;;;;;;15.80;10.40;;;;;;;23.57;58.00;100101.81;117334;1185;21863;-64
2022/08/20 03:06:31;;;;;;;14.10;10.60;;;;;;;23.55;58.06;100103.77;117355;1186;22922;-63
2022/08/20 03:08:58;;;;;;;11.30;10.20;;;;;;;23.53;58.03;100100.84;117375;1182;21902;-64
2022/08/20 03:11:25;;;;;;;38.10;11.70;;;;;;;23.52;58.27;100101.77;117322;1183;23582;-59
2022/08/20 03:13:52;;;;;;;15.70;10.30;;;;;;;23.53;58.37;100099.02;117292;1185;21920;-59
2022/08/20 03:16:19;;;;;;;12.00;10.10;;;;;;;23.58;58.46;100102.98;117286;1184;23557;-66
2022/08/20 03:18:46;;;;;;;13.70;10.00;;;;;;;23.65;58.37;100106.79;117260;1186;22933;-67
2022/08/20 03:21:17;;;;;;;17.50;10.20;;;;;;;23.67;58.44;100105.94;117244;1186;23560;-67
2022/08/20 03:23:44;;;;;;;13.60;10.10;;;;;;;23.68;58.45;100109.10;117363;1183;22906;-67
2022/08/20 03:26:12;;;;;;;13.40;9.90;;;;;;;23.71;58.34;100108.84;117338;1186;22927;-66
2022/08/20 03:28:40;;;;;;;11.70;8.90;;;;;;;23.72;58.49;100105.73;117310;1182;23558;-66
2022/08/20 03:31:07;;;;;;;13.20;10.00;;;;;;;23.75;58.68;100110.52;117295;1185;21962;-60
2022/08/20 03:33:34;;;;;;;15.70;9.00;;;;;;;23.82;58.35;100107.90;117335;1182;22941;-67
2022/08/20 03:36:05;;;;;;;15.00;10.10;;;;;;;23.89;58.30;100106.67;117287;1182;23533;-67
2022/08/20 03:38:32;;;;;;;14.20;9.50;;;;;;;23.90;58.35;100108.02;117307;1182;21832;-67
2022/08/20 03:41:00;;;;;;;13.50;9.70;;;;;;;23.94;58.28;100106.51;117203;1185;22807;-66
2022/08/20 03:43:27;;;;;;;12.30;10.00;;;;;;;23.93;58.36;100101.00;117154;1185;22926;-59
2022/08/20 03:45:54;;;;;;;15.30;9.70;;;;;;;23.93;58.42;100095.45;117107;1186;21861;-66
2022/08/20 03:48:21;;;;;;;11.40;9.20;;;;;;;23.94;58.44;100095.73;117198;1184;23558;-66
2022/08/20 03:50:49;;;;;;;12.50;8.70;;;;;;;23.96;58.51;100097.92;117256;1185;23009;-59
2022/08/20 03:53:17;;;;;;;15.60;9.10;;;;;;;24.01;58.55;100102.09;117374;1185;23475;-59
2022/08/20 03:55:45;;;;;;;10.40;9.30;;;;;;;24.06;58.36;100104.94;117342;1182;22916;-67
2022/08/20 03:58:20;;;;;;;11.60;9.20;;;;;;;24.08;58.50;100100.84;117245;1188;21978;-66
2022/08/20 04:00:57;;;;;;;13.30;9.20;;;;;;;24.10;58.34;100102.86;117014;1187;23913;-59
2022/08/20 04:03:24;;;;;;;13.40;8.90;;;;;;;24.08;58.32;100102.45;116973;1186;21902;-58
2022/08/20 04:05:52;;;;;;;12.30;9.10;;;;;;;24.03;58.39;100107.12;117020;1185;22966;-65
2022/08/20 04:08:21;;;;;;;12.60;9.30;;;;;;;23.98;58.49;100109.08;117131;1186;23689;-64
2022/08/20 04:10:48;;;;;;;16.30;9.40;;;;;;;23.95;58.31;100113.04;117334;1186;22922;-58
2022/08/20 04:13:16;;;;;;;11.30;8.80;;;;;;;23.94;58.47;100113.50;117332;1182;22892;-57
2022/08/20 04:15:44;;;;;;;10.90;8.70;;;;;;;23.94;58.40;100116.73;117337;1185;22957;-64
2022/08/20 04:18:11;;;;;;;12.20;8.80;;;;;;;23.94;58.54;100118.67;117396;1186;22909;-58
2022/08/20 04:20:40;;;;;;;11.20;8.90;;;;;;;23.95;58.49;100121.09;117321;1185;22921;-59
2022/08/20 04:23:07;;;;;;;10.50;8.30;;;;;;;23.97;58.67;100127.42;117392;1185;21871;-64
2022/08/20 04:25:35;;;;;;;12.70;8.70;;;;;;;24.00;58.51;100131.87;117293;1185;23902;-64
2022/08/20 04:28:11;;;;;;;10.20;8.20;;;;;;;24.05;58.57;100131.70;117272;1186;23557;-58
2022/08/20 04:30:41;;;;;;;12.80;8.50;;;;;;;24.09;58.59;100130.37;117321;1186;23001;-64
2022/08/20 04:33:20;;;;;;;15.00;9.60;;;;;;;24.12;58.68;100134.08;116997;1187;22131;-64
2022/08/20 04:36:04;;;;;;;13.40;8.00;;;;;;;24.15;58.66;100132.42;117262;1185;22086;-65
2022/08/20 04:38:31;;;;;;;11.80;8.40;;;;;;;24.18;58.72;100133.11;117340;1185;21908;-58
2022/08/20 04:41:18;;;;;;;15.10;8.50;;;;;;;24.24;58.79;100129.66;117326;1185;22916;-63
2022/08/20 04:43:53;;;;;;;17.10;9.50;;;;;;;24.33;58.61;100126.45;117340;1186;23540;-59
2022/08/20 04:46:22;;;;;;;13.70;8.60;;;;;;;24.39;58.70;100123.38;117406;1186;23542;-64
2022/08/20 04:48:49;;;;;;;10.00;8.10;;;;;;;24.44;58.72;100120.12;117362;1185;21889;-64
2022/08/20 04:51:17;;;;;;;13.40;9.50;;;;;;;24.48;58.66;100112.42;117366;1184;21840;-63
2022/08/20 04:53:44;;;;;;;11.40;8.80;;;;;;;24.54;58.79;100107.02;117396;1185;21858;-64
2022/08/20 04:56:22;;;;;;;14.50;9.40;;;;;;;24.59;58.77;100105.38;117295;1186;21943;-59
2022/08/20 04:58:51;;;;;;;13.50;8.00;;;;;;;24.65;58.64;100109.05;117372;1182;22925;-64
2022/08/20 05:01:18;;;;;;;11.90;9.00;;;;;;;24.70;58.59;100101.87;117354;1185;22711;-64
2022/08/20 05:03:48;;;;;;;12.20;9.10;;;;;;;24.76;58.58;100105.89;117392;1185;21833;-64
2022/08/20 05:06:16;;;;;;;13.10;9.10;;;;;;;24.82;58.45;100102.05;117436;1186;22958;-58
2022/08/20 05:08:43;;;;;;;10.60;9.10;;;;;;;24.87;58.45;100096.23;117464;1183;22919;-64
2022/08/20 05:11:11;;;;;;;12.10;8.70;;;;;;;24.96;58.47;100090.58;117425;1184;22922;-63
2022/08/20 05:13:58;;;;;;;9.80;8.40;;;;;;;25.07;58.42;100082.67;117389;1183;22596;-58
2022/08/20 05:16:25;;;;;;;12.40;9.40;;;;;;;25.18;58.33;100085.61;117144;1183;21909;-58
2022/08/20 05:18:52;;;;;;;13.40;8.90;;;;;;;25.27;58.31;100086.66;117324;1186;22911;-64
2022/08/20 05:21:19;;;;;;;14.50;8.30;;;;;;;25.39;58.16;100091.88;117335;1186;23574;-58
2022/08/20 05:23:47;;;;;;;12.00;8.50;;;;;;;25.48;58.03;100090.47;117183;1187;23347;-64
2022/08/20 05:26:15;;;;;;;12.80;8.50;;;;;;;25.55;58.02;100092.42;117384;1186;21855;-62
2022/08/20 05:28:44;;;;;;;12.30;8.80;;;;;;;25.64;57.98;100093.31;117311;1185;22920;-65
2022/08/20 05:31:27;;;;;;;10.20;8.40;;;;;;;25.75;57.92;100091.02;117442;1184;21881;-65
2022/08/20 05:34:09;;;;;;;14.10;8.30;;;;;;;25.88;57.96;100088.33;117268;1189;21856;-64
2022/08/20 05:36:38;;;;;;;11.20;8.00;;;;;;;26.03;57.86;100088.60;117347;1185;21961;-58
2022/08/20 05:39:07;;;;;;;9.10;7.70;;;;;;;26.15;57.72;100089.56;117388;1184;21875;-63
2022/08/20 05:41:34;;;;;;;11.30;8.10;;;;;;;26.34;57.67;100090.89;117364;1185;21911;-64
2022/08/20 05:44:01;;;;;;;11.60;8.70;;;;;;;26.55;57.33;100089.86;117286;1185;22091;-65
2022/08/20 05:46:29;;;;;;;12.40;8.40;;;;;;;26.69;57.17;100091.42;117362;1186;21848;-58
2022/08/20 05:48:58;;;;;;;14.30;8.70;;;;;;;26.78;56.89;100091.23;117393;1185;21845;-59
2022/08/20 05:51:27;;;;;;;12.40;9.10;;;;;;;26.84;56.86;100092.16;117492;1186;22806;-64
2022/08/20 05:53:56;;;;;;;11.60;8.20;;;;;;;26.91;56.74;100092.89;117312;1185;23484;-64
2022/08/20 05:56:28;;;;;;;9.60;8.50;;;;;;;26.98;56.76;100093.17;117326;1186;21879;-58
2022/08/20 05:58:59;;;;;;;9.80;8.00;;;;;;;27.05;56.65;100091.64;117449;1186;22921;-65
2022/08/20 06:01:26;;;;;;;10.60;8.70;;;;;;;27.07;56.57;100087.67;117306;1185;23614;-59
2022/08/20 06:06:38;;;;;;;10.40;7.50;;;;;;;27.25;56.45;100087.23;117209;1185;22921;-65
2022/08/20 06:09:13;;;;;;;13.60;8.30;;;;;;;27.42;56.61;100090.27;117419;1185;22985;-65
2022/08/20 06:11:40;;;;;;;11.70;7.80;;;;;;;27.64;56.77;100092.31;117295;1183;22536;-59
2022/08/20 06:14:07;;;;;;;12.00;8.30;;;;;;;27.88;56.41;100089.26;117293;1182;23576;-59
2022/08/20 06:16:34;;;;;;;13.40;8.60;;;;;;;28.05;56.29;100089.02;117329;1182;22158;-65
2022/08/20 06:19:04;;;;;;;10.10;7.70;;;;;;;28.18;56.08;100083.17;117349;1185;23488;-59
2022/08/20 06:21:31;;;;;;;12.10;8.10;;;;;;;28.30;55.83;100083.58;117361;1183;22619;-58
2022/08/20 06:23:58;;;;;;;9.70;7.80;;;;;;;28.45;56.01;100086.88;117381;1185;21851;-65
2022/08/20 06:26:28;;;;;;;17.60;13.70;;;;;;;28.62;55.71;100088.52;117452;1186;21860;-59
2022/08/20 06:28:57;;;;;;;29.70;20.30;;;;;;;28.76;55.54;100089.11;117481;1185;22158;-65
2022/08/20 06:31:23;;;;;;;34.20;24.80;;;;;;;28.89;55.40;100086.09;117339;1186;21866;-65
2022/08/20 06:33:50;;;;;;;16.60;12.30;;;;;;;29.00;55.14;100080.50;117388;1185;23615;-59
2022/08/20 06:36:19;;;;;;;13.90;9.90;;;;;;;29.13;55.21;100082.40;117419;1183;21859;-59
2022/08/20 06:38:46;;;;;;;10.50;8.70;;;;;;;29.24;54.68;100082.39;117226;1185;21921;-65
2022/08/20 06:41:13;;;;;;;11.50;7.80;;;;;;;29.34;54.73;100084.72;117233;1186;23628;-60
2022/08/20 06:43:40;;;;;;;9.90;8.10;;;;;;;29.46;54.69;100086.30;117300;1183;23563;-59
2022/08/20 06:46:07;;;;;;;10.80;7.50;;;;;;;29.63;54.76;100082.66;117334;1182;22082;-59
2022/08/20 06:48:35;;;;;;;11.50;7.40;;;;;;;29.82;54.67;100085.33;117423;1180;22914;-64
2022/08/20 06:51:05;;;;;;;9.90;8.00;;;;;;;30.00;54.32;100090.07;117448;1186;22723;-59
2022/08/20 06:53:32;;;;;;;9.00;8.00;;;;;;;30.13;54.23;100093.02;117396;1186;22039;-59
2022/08/20 06:55:59;;;;;;;9.80;7.80;;;;;;;30.29;54.28;100096.33;117378;1187;22423;-65
2022/08/20 06:58:26;;;;;;;9.90;8.00;;;;;;;30.48;54.17;100099.50;117483;1180;22807;-59
2022/08/20 07:01:07;;;;;;;14.90;7.20;;;;;;;30.67;53.84;100097.41;117395;1186;23459;-60
2022/08/20 07:03:38;;;;;;;11.20;7.50;;;;;;;30.82;53.77;100098.97;117415;1186;22643;-59
2022/08/20 07:06:07;;;;;;;13.20;6.70;;;;;;;31.00;53.75;100097.47;117397;1186;21878;-65
2022/08/20 07:08:34;;;;;;;11.80;7.50;;;;;;;31.19;53.20;100094.69;117400;1182;24167;-60
2022/08/20 07:11:02;;;;;;;14.00;7.60;;;;;;;31.36;53.26;100097.62;117426;1186;22939;-65
2022/08/20 07:13:30;;;;;;;8.70;7.80;;;;;;;31.53;52.92;100096.31;117463;1186;23008;-65
2022/08/20 07:15:57;;;;;;;9.40;7.30;;;;;;;31.61;52.32;100092.23;117424;1184;23545;-59
2022/08/20 07:18:24;;;;;;;12.10;7.80;;;;;;;31.59;52.17;100090.05;117370;1184;21987;-66
2022/08/20 07:20:56;;;;;;;12.40;7.70;;;;;;;31.65;52.34;100086.98;117488;1186;22310;-65
2022/08/20 07:23:24;;;;;;;9.10;6.80;;;;;;;31.81;52.35;100091.10;117411;1183;24229;-65
2022/08/20 07:25:51;;;;;;;10.00;7.10;;;;;;;32.00;52.28;100091.73;117433;1186;22981;-59
2022/08/20 07:28:21;;;;;;;7.80;6.90;;;;;;;32.24;52.37;100086.86;117400;1183;23576;-58
2022/08/20 07:33:40;;;;;;;9.10;6.80;;;;;;;32.62;51.56;100083.13;117267;1186;21891;-59
2022/08/20 07:36:07;;;;;;;10.70;7.50;;;;;;;32.74;51.35;100080.31;117305;1187;22081;-59
2022/08/20 07:38:35;;;;;;;10.30;6.70;;;;;;;32.91;50.99;100084.67;117361;1182;23719;-59
2022/08/20 07:41:08;;;;;;;13.00;7.40;;;;;;;33.01;50.93;100078.06;117361;1185;21899;-65
2022/08/20 07:43:35;;;;;;;7.60;6.80;;;;;;;33.06;50.55;100081.65;117358;1185;21853;-65
2022/08/20 07:46:06;;;;;;;9.30;6.40;;;;;;;33.09;50.54;100084.14;117329;1186;21887;-65
2022/08/20 07:48:38;;;;;;;8.30;6.80;;;;;;;33.12;50.24;100086.24;117435;1185;22999;-59
2022/08/20 07:51:06;;;;;;;13.90;6.60;;;;;;;33.18;50.65;100086.33;117321;1186;23652;-65
2022/08/20 07:53:34;;;;;;;9.50;6.30;;;;;;;33.39;50.41;100080.90;117299;1186;22622;-60
2022/08/20 07:56:06;;;;;;;9.70;6.20;;;;;;;33.62;50.12;100080.35;117318;1187;21848;-66
2022/08/20 07:58:35;;;;;;;12.10;7.00;;;;;;;33.81;50.11;100079.77;117312;1186;22139;-65
2022/08/20 08:01:04;;;;;;;11.70;7.20;;;;;;;34.01;49.88;100082.73;117339;1186;22954;-59
2022/08/20 08:03:31;;;;;;;10.50;6.90;;;;;;;34.20;49.73;100083.39;117425;1182;23464;-65
2022/08/20 08:06:15;;;;;;;9.20;7.50;;;;;;;34.45;49.28;100084.40;117335;1183;23448;-66
2022/08/20 08:09:06;;;;;;;12.00;6.60;;;;;;;34.56;48.93;100085.86;117361;1186;21862;-59
2022/08/20 08:11:36;;;;;;;8.80;6.00;;;;;;;34.66;48.78;100085.73;117288;1186;23664;-59
2022/08/20 08:14:05;;;;;;;11.60;6.90;;;;;;;34.75;48.53;100083.36;117408;1186;21924;-65
2022/08/20 08:16:33;;;;;;;11.30;6.70;;;;;;;34.82;48.30;100080.23;117353;1185;21866;-65
2022/08/20 08:19:00;;;;;;;7.90;7.10;;;;;;;34.79;48.12;100079.30;117317;1186;21858;-59
2022/08/20 08:21:29;;;;;;;7.50;6.60;;;;;;;34.75;48.29;100079.78;117347;1188;21845;-66
2022/08/20 08:23:57;;;;;;;9.70;6.80;;;;;;;34.88;48.29;100078.56;117367;1184;21858;-59
2022/08/20 08:26:25;;;;;;;8.10;6.00;;;;;;;35.09;48.20;100078.20;117086;1185;21859;-60
2022/08/20 08:28:53;;;;;;;7.60;5.50;;;;;;;35.29;47.93;100077.18;117266;1186;22927;-60
2022/08/20 08:31:21;;;;;;;9.50;6.30;;;;;;;35.49;47.45;100076.63;119254;1184;21876;-67
2022/08/20 08:33:48;;;;;;;10.30;6.30;;;;;;;35.70;47.27;100068.41;117314;1183;22634;-60
2022/08/20 08:36:15;;;;;;;9.80;6.70;;;;;;;35.85;47.05;100071.52;117356;1185;22922;-60
2022/08/20 08:38:43;;;;;;;14.70;6.40;;;;;;;35.91;47.08;100072.36;117462;1185;23685;-67
2022/08/20 08:41:12;;;;;;;13.00;6.30;;;;;;;36.10;46.97;100074.27;117509;1183;22927;-60
2022/08/20 08:43:39;;;;;;;11.20;6.00;;;;;;;36.34;47.04;100071.89;117380;1182;22920;-60
2022/08/20 08:46:09;;;;;;;9.00;5.40;;;;;;;36.59;46.62;100071.05;117087;1185;22947;-60
2022/08/20 08:48:41;;;;;;;9.00;5.80;;;;;;;36.76;46.30;100068.02;117299;1183;22810;-60
2022/08/20 08:51:11;;;;;;;8.80;6.00;;;;;;;36.96;45.79;100069.58;117342;1185;23476;-60
2022/08/20 08:53:46;;;;;;;11.20;6.80;;;;;;;37.22;45.89;100068.19;117297;1185;21859;-61
2022/08/20 08:56:14;;;;;;;9.30;6.10;;;;;;;37.40;45.41;100069.45;117293;1180;22929;-61
2022/08/20 08:58:42;;;;;;;8.20;5.90;;;;;;;37.51;45.05;100065.33;117180;1186;21919;-61
2022/08/20 09:01:11;;;;;;;9.70;6.10;;;;;;;37.67;44.96;100059.58;117121;1186;22945;-60
2022/08/20 09:04:00;;;;;;;11.90;6.10;;;;;;;37.83;44.89;100059.33;117131;1186;21868;-61
2022/08/20 09:06:27;;;;;;;7.90;5.60;;;;;;;38.01;44.72;100058.48;117137;1188;23006;-61
2022/08/20 09:08:59;;;;;;;9.30;5.50;;;;;;;38.24;44.28;100059.52;117068;1184;23554;-61
2022/08/20 09:11:28;;;;;;;8.40;5.90;;;;;;;38.42;44.08;100060.96;117012;1188;23573;-61
2022/08/20 09:13:55;;;;;;;10.70;6.20;;;;;;;38.44;43.47;100060.59;117123;1186;22813;-67
2022/08/20 09:16:23;;;;;;;10.30;5.70;;;;;;;38.32;43.50;100064.48;117301;1183;22925;-62
2022/08/20 09:18:53;;;;;;;9.40;6.00;;;;;;;38.22;43.20;100059.42;118446;1183;21908;-67
2022/08/20 09:21:21;;;;;;;8.70;5.50;;;;;;;38.23;43.21;100055.49;117296;1183;23630;-61
2022/08/20 09:23:47;;;;;;;11.40;6.10;;;;;;;38.39;43.24;100056.01;117419;1183;23547;-67
2022/08/20 09:26:15;;;;;;;11.20;5.50;;;;;;;38.63;43.30;100061.27;117366;1185;24183;-61
2022/08/20 09:28:42;;;;;;;10.00;5.80;;;;;;;38.87;43.03;100063.80;117362;1183;21847;-61
2022/08/20 09:31:14;;;;;;;10.40;5.70;;;;;;;39.01;42.83;100064.34;118988;1186;21788;-62
2022/08/20 09:33:43;;;;;;;12.80;5.70;;;;;;;39.29;42.16;100068.80;117711;1185;22157;-62
2022/08/20 09:36:11;;;;;;;9.80;5.40;;;;;;;39.56;42.03;100068.17;119363;1183;21820;-61
2022/08/20 09:38:57;;;;;;;9.40;5.10;;;;;;;39.82;41.37;100065.92;119139;1184;21848;-60
2022/08/20 09:41:25;;;;;;;13.20;5.40;;;;;;;39.94;41.32;100066.86;117256;1186;21899;-66
2022/08/20 09:43:53;;;;;;;11.90;5.00;;;;;;;40.08;41.47;100061.99;117422;1186;21916;-65
2022/08/20 09:46:20;;;;;;;9.00;4.70;;;;;;;40.25;41.22;100061.73;117632;1185;23542;-60
2022/08/20 09:48:53;;;;;;;11.20;4.70;;;;;;;40.31;40.88;100061.98;117319;1185;21891;-60
2022/08/20 09:51:21;;;;;;;9.90;5.80;;;;;;;40.39;40.65;100062.02;117364;1186;21879;-67
2022/08/20 09:53:48;;;;;;;9.20;5.60;;;;;;;40.46;40.64;100063.35;117333;1187;23624;-62
2022/08/20 09:56:15;;;;;;;13.40;5.70;;;;;;;40.46;40.34;100064.51;117270;1186;21857;-67
2022/08/20 09:58:52;;;;;;;8.90;5.30;;;;;;;40.30;40.14;100063.78;117209;1183;21884;-67
2022/08/20 10:01:20;;;;;;;10.80;6.00;;;;;;;40.05;39.88;100056.80;117821;1183;21875;-65
2022/08/20 10:03:47;;;;;;;8.00;5.00;;;;;;;39.77;39.83;100059.56;117628;1182;21915;-63
2022/08/20 10:06:16;;;;;;;8.30;4.90;;;;;;;39.49;39.94;100056.90;119357;1184;21819;-63
2022/08/20 10:08:43;;;;;;;11.40;5.20;;;;;;;39.21;40.16;100057.27;119399;1185;21793;-61
2022/08/20 10:11:10;;;;;;;13.60;5.40;;;;;;;39.03;40.21;100053.04;119427;1183;21819;-62
2022/08/20 10:13:38;;;;;;;13.70;7.00;;;;;;;38.89;40.45;100054.06;118403;1186;22024;-62
2022/08/20 10:16:06;;;;;;;12.30;8.30;;;;;;;38.77;40.08;100054.52;117345;1186;23452;-66
2022/08/20 10:18:35;;;;;;;15.70;7.60;;;;;;;38.58;40.33;100049.17;117339;1186;22097;-65
2022/08/20 10:21:02;;;;;;;9.60;6.30;;;;;;;38.46;40.42;100048.53;117399;1186;21850;-62
2022/08/20 10:23:29;;;;;;;13.10;6.00;;;;;;;38.46;40.54;100045.02;117397;1185;21888;-63
2022/08/20 10:25:56;;;;;;;13.30;6.10;;;;;;;38.62;40.36;100041.55;117319;1183;22945;-62
2022/08/20 10:28:23;;;;;;;10.10;5.50;;;;;;;38.83;40.18;100036.77;117332;1185;21857;-66
2022/08/20 10:30:50;;;;;;;11.30;5.30;;;;;;;39.03;39.85;100033.23;117263;1186;22117;-61
2022/08/20 10:33:18;;;;;;;10.90;5.60;;;;;;;39.37;40.17;100038.52;117377;1183;21857;-66
2022/08/20 10:35:45;;;;;;;9.50;4.90;;;;;;;39.84;40.24;100037.80;117353;1186;21861;-62
2022/08/20 10:38:12;;;;;;;8.90;5.40;;;;;;;40.24;39.84;100036.05;117361;1182;21910;-65
2022/08/20 10:40:40;;;;;;;9.50;4.70;;;;;;;40.39;39.06;100033.59;117253;1183;23013;-66
2022/08/20 10:43:16;;;;;;;7.80;4.70;;;;;;;40.30;38.57;100036.27;117262;1188;22847;-66
2022/08/20 10:45:44;;;;;;;10.40;5.30;;;;;;;40.06;38.68;100035.90;117314;1186;23582;-61
2022/08/20 10:48:11;;;;;;;7.30;5.10;;;;;;;39.88;39.00;100033.77;117318;1186;21977;-62
2022/08/20 10:50:41;;;;;;;8.10;4.90;;;;;;;39.92;38.99;100033.83;117258;1187;23479;-62
2022/08/20 10:53:09;;;;;;;9.00;4.80;;;;;;;39.93;38.60;100034.30;117353;1186;23699;-66
2022/08/20 10:55:35;;;;;;;9.70;4.60;;;;;;;39.84;38.37;100032.39;117395;1183;23548;-62
2022/08/20 10:58:04;;;;;;;8.80;4.90;;;;;;;39.59;37.99;100035.80;117252;1185;21851;-60
2022/08/20 11:00:32;;;;;;;10.20;4.90;;;;;;;39.24;38.17;100029.23;117136;1188;21869;-66
2022/08/20 11:03:00;;;;;;;10.20;5.10;;;;;;;38.89;38.55;100023.17;117189;1183;21914;-63
2022/08/20 11:05:27;;;;;;;8.10;4.90;;;;;;;38.75;38.46;100017.89;119218;1186;21793;-61
2022/08/20 11:07:54;;;;;;;7.80;4.60;;;;;;;38.77;38.84;100013.23;118867;1186;23995;-61
2022/08/20 11:10:24;;;;;;;8.90;5.10;;;;;;;38.95;38.62;100013.61;118505;1185;21859;-65
2022/08/20 11:12:51;;;;;;;8.40;4.60;;;;;;;39.10;38.59;100011.20;117306;1183;21973;-63
2022/08/20 11:15:18;;;;;;;8.70;4.80;;;;;;;39.17;38.28;100010.15;117297;1183;23629;-65
2022/08/20 11:17:45;;;;;;;10.20;5.40;;;;;;;39.12;38.29;100006.71;117310;1186;21852;-65
2022/08/20 11:20:14;;;;;;;8.30;5.40;;;;;;;38.96;37.82;100005.56;117423;1183;22691;-60
2022/08/20 11:22:40;;;;;;;8.20;5.10;;;;;;;38.76;37.55;100005.70;117076;1186;21967;-62
2022/08/20 11:25:08;;;;;;;9.80;4.90;;;;;;;38.65;38.22;100007.45;117176;1185;22002;-66